Time;durP1;ratioP1;P1;durP2;ratioP2;P2;SDS_P1;SDS_P2;PMS_P1;PMS_P2;Temp;Humidity;BMP_temperature;BMP_pressure;BME280_temperature;BME280_humidity;BME280_pressure;Samples;Min_cycle;Max_cycle;Signal;HPM_P1;HPM_P2
2020/12/15 00:02:08;;;;;;;23.83;4.45;;;6.70;99.90;;;;;;4901415;29;20031;-94
2020/12/15 00:04:34;;;;;;;18.35;5.80;;;6.70;99.90;;;;;;4901883;29;20084;-94
2020/12/15 00:07:00;;;;;;;35.75;5.30;;;6.70;99.90;;;;;;4901197;29;20490;-93
2020/12/15 00:09:27;;;;;;;29.10;6.22;;;6.70;99.90;;;;;;4901484;29;20040;-93
2020/12/15 00:11:53;;;;;;;35.13;6.55;;;6.70;99.90;;;;;;4901527;29;20028;-93
2020/12/15 00:14:19;;;;;;;34.00;7.45;;;6.70;99.90;;;;;;4901966;29;20032;-95
2020/12/15 00:16:44;;;;;;;24.17;6.18;;;6.80;99.90;;;;;;4901137;29;20478;-94
2020/12/15 00:19:11;;;;;;;27.35;6.70;;;6.70;99.90;;;;;;4901412;29;20035;-95
2020/12/15 00:21:41;;;;;;;20.75;6.20;;;6.80;99.90;;;;;;4901878;29;20679;-93
2020/12/15 00:24:07;;;;;;;35.40;8.57;;;6.80;99.90;;;;;;4901107;29;20035;-93
2020/12/15 00:26:33;;;;;;;23.88;5.70;;;6.90;99.90;;;;;;4905225;29;20020;-95
2020/12/15 00:28:58;;;;;;;21.92;5.90;;;6.80;99.90;;;;;;4910255;29;20078;-95
2020/12/15 00:31:24;;;;;;;35.83;7.85;;;6.80;99.90;;;;;;4911796;29;20028;-92
2020/12/15 00:33:49;;;;;;;38.55;6.55;;;6.80;99.90;;;;;;4915968;29;20036;-93
2020/12/15 00:36:19;;;;;;;22.42;6.38;;;6.80;99.90;;;;;;4915631;29;20107;-94
2020/12/15 00:38:45;;;;;;;21.02;5.63;;;6.80;99.90;;;;;;4909215;29;20043;-93
2020/12/15 00:41:11;;;;;;;21.90;5.60;;;6.80;99.90;;;;;;4905543;29;20028;-92
2020/12/15 00:43:39;;;;;;;27.02;5.38;;;6.80;99.90;;;;;;4907861;29;20493;-93
2020/12/15 00:46:05;;;;;;;32.00;6.90;;;6.80;99.90;;;;;;4907129;29;20028;-94
2020/12/15 00:48:31;;;;;;;25.25;5.85;;;6.70;99.90;;;;;;4909889;29;20039;-94
2020/12/15 00:50:56;;;;;;;21.38;6.30;;;6.70;99.90;;;;;;4909086;29;20036;-94
2020/12/15 00:53:22;;;;;;;28.13;7.05;;;6.70;99.90;;;;;;4906426;29;20026;-93
2020/12/15 00:55:48;;;;;;;34.80;6.80;;;6.60;99.90;;;;;;4906159;29;20036;-94
2020/12/15 00:58:13;;;;;;;26.10;6.68;;;6.60;99.90;;;;;;4906324;29;20033;-94
2020/12/15 01:00:39;;;;;;;21.30;7.07;;;6.60;99.90;;;;;;4906632;29;20462;-94
2020/12/15 01:03:05;;;;;;;23.08;5.80;;;6.60;99.90;;;;;;4907566;29;20538;-94
2020/12/15 01:05:30;;;;;;;32.42;6.78;;;6.50;99.90;;;;;;4907612;29;20032;-93
2020/12/15 01:07:56;;;;;;;22.08;6.15;;;6.50;99.90;;;;;;4907782;29;20487;-93
2020/12/15 01:10:22;;;;;;;21.05;6.75;;;6.50;99.90;;;;;;4907596;29;20040;-94
2020/12/15 01:12:47;;;;;;;39.53;7.32;;;6.50;99.90;;;;;;4907330;29;20024;-94
2020/12/15 01:15:14;;;;;;;27.50;6.43;;;6.50;99.90;;;;;;4907079;29;20046;-93
2020/12/15 01:17:40;;;;;;;22.00;5.80;;;6.50;99.90;;;;;;4907373;29;20032;-93
2020/12/15 01:20:05;;;;;;;29.27;6.00;;;6.40;99.90;;;;;;4907629;29;20401;-94
2020/12/15 01:22:31;;;;;;;30.65;6.53;;;6.40;99.90;;;;;;4908766;29;20032;-94
2020/12/15 01:24:57;;;;;;;26.60;5.90;;;6.40;99.90;;;;;;4907234;29;20032;-93
2020/12/15 01:27:22;;;;;;;26.17;6.43;;;6.40;99.90;;;;;;4907360;29;20020;-94
2020/12/15 01:29:48;;;;;;;35.75;6.85;;;6.40;99.90;;;;;;4907108;29;20112;-93
2020/12/15 01:32:14;;;;;;;32.03;7.65;;;6.40;99.90;;;;;;4907029;29;20063;-92
2020/12/15 01:34:39;;;;;;;34.00;7.75;;;6.40;99.90;;;;;;4907099;29;20032;-94
2020/12/15 01:37:05;;;;;;;29.73;8.35;;;6.40;99.90;;;;;;4906804;29;20084;-94
2020/12/15 01:39:31;;;;;;;22.52;7.68;;;6.40;99.90;;;;;;4907031;29;20028;-93
2020/12/15 01:41:57;;;;;;;30.90;8.50;;;6.40;99.90;;;;;;4906937;29;20031;-93
2020/12/15 01:44:23;;;;;;;27.70;7.72;;;6.40;99.90;;;;;;4904922;29;20481;-94
2020/12/15 01:46:50;;;;;;;30.15;8.05;;;6.40;99.90;;;;;;4903554;29;20051;-94
2020/12/15 01:49:18;;;;;;;27.98;9.27;;;6.30;99.90;;;;;;4903620;29;20450;-94
2020/12/15 01:51:45;;;;;;;32.65;8.52;;;6.30;99.90;;;;;;4903867;29;20028;-94
2020/12/15 01:54:11;;;;;;;35.55;8.82;;;6.30;99.90;;;;;;4903555;29;20028;-94
2020/12/15 01:56:37;;;;;;;34.90;8.25;;;6.30;99.90;;;;;;4903441;29;20028;-94
2020/12/15 01:59:03;;;;;;;30.80;7.53;;;6.30;99.90;;;;;;4903203;29;20063;-94
2020/12/15 02:01:29;;;;;;;28.25;6.60;;;6.30;99.90;;;;;;4903076;29;20115;-94
2020/12/15 02:03:55;;;;;;;22.73;5.97;;;6.30;99.90;;;;;;4903214;29;20036;-93
2020/12/15 02:06:23;;;;;;;29.02;6.05;;;6.30;99.90;;;;;;4902318;29;20052;-94
2020/12/15 02:08:49;;;;;;;15.80;5.57;;;6.20;99.90;;;;;;4903303;29;20094;-95
2020/12/15 02:11:16;;;;;;;14.63;4.90;;;6.20;99.90;;;;;;4903129;29;20032;-95
2020/12/15 02:13:42;;;;;;;18.13;5.57;;;6.20;99.90;;;;;;4904337;29;20099;-95
2020/12/15 02:16:12;;;;;;;21.63;5.70;;;6.20;99.90;;;;;;4905304;29;20477;-93
2020/12/15 02:18:38;;;;;;;29.10;5.43;;;6.20;99.90;;;;;;4904110;29;20023;-94
2020/12/15 02:21:05;;;;;;;18.58;4.53;;;6.10;99.90;;;;;;4903155;29;20441;-94
2020/12/15 02:23:31;;;;;;;21.15;4.78;;;6.10;99.90;;;;;;4903661;29;20575;-93
2020/12/15 02:25:57;;;;;;;18.90;3.65;;;6.10;99.90;;;;;;4903754;29;20036;-94
2020/12/15 02:28:22;;;;;;;18.60;3.53;;;6.00;99.90;;;;;;4902718;29;20036;-94
2020/12/15 02:30:48;;;;;;;20.73;4.20;;;6.00;99.90;;;;;;4903008;29;20390;-95
2020/12/15 02:33:14;;;;;;;12.70;2.60;;;6.00;99.90;;;;;;4902615;29;20044;-94
2020/12/15 02:35:39;;;;;;;11.38;3.10;;;6.00;99.90;;;;;;4902564;29;20028;-94
2020/12/15 02:38:05;;;;;;;10.80;3.00;;;5.90;99.90;;;;;;4903131;29;20036;-94
2020/12/15 02:40:31;;;;;;;12.85;3.63;;;5.90;99.90;;;;;;4903063;29;20025;-94
2020/12/15 02:42:56;;;;;;;8.10;2.58;;;5.90;99.90;;;;;;4903749;29;20038;-95
2020/12/15 02:45:22;;;;;;;17.65;3.40;;;5.90;99.90;;;;;;4903614;29;20460;-95
2020/12/15 02:47:48;;;;;;;13.60;3.00;;;5.90;99.90;;;;;;4911444;29;20024;-94
2020/12/15 02:50:23;;;;;;;15.32;2.92;;;5.90;99.90;;;;;;4902465;29;20047;-94
2020/12/15 02:52:49;;;;;;;16.75;2.53;;;5.90;99.90;;;;;;4902382;29;20556;-93
2020/12/15 02:55:15;;;;;;;10.23;2.50;;;5.90;99.90;;;;;;4902370;29;20066;-94
2020/12/15 02:57:41;;;;;;;14.38;2.10;;;5.80;99.90;;;;;;4902011;29;20020;-95
2020/12/15 03:00:11;;;;;;;11.82;2.70;;;5.80;99.90;;;;;;4902369;29;20036;-94
2020/12/15 03:02:37;;;;;;;10.25;2.05;;;5.80;99.90;;;;;;4901788;29;20028;-93
2020/12/15 03:05:04;;;;;;;9.70;2.10;;;5.80;99.90;;;;;;4919419;29;20106;-94
2020/12/15 03:07:31;;;;;;;13.40;2.33;;;5.80;99.90;;;;;;4902004;29;20083;-95
2020/12/15 03:09:56;;;;;;;13.38;1.67;;;5.80;99.90;;;;;;4901699;29;20048;-94
2020/12/15 03:12:22;;;;;;;14.18;2.00;;;5.70;99.90;;;;;;4901695;29;20399;-93
2020/12/15 03:14:49;;;;;;;15.32;2.63;;;5.80;99.90;;;;;;4902229;29;20028;-95
2020/12/15 03:17:16;;;;;;;12.93;2.20;;;5.70;99.90;;;;;;4901909;29;20050;-94
2020/12/15 03:19:42;;;;;;;17.88;2.65;;;5.70;99.90;;;;;;4902057;29;20506;-94
2020/12/15 03:22:08;;;;;;;12.18;2.60;;;5.70;99.90;;;;;;4901919;29;20123;-95
2020/12/15 03:24:36;;;;;;;13.60;1.98;;;5.70;99.90;;;;;;4905537;29;20058;-95
2020/12/15 03:27:10;;;;;;;20.88;3.28;;;5.70;99.90;;;;;;4888432;29;20032;-95
2020/12/15 03:29:36;;;;;;;12.10;2.10;;;5.70;99.90;;;;;;4885780;29;20047;-95
2020/12/15 03:32:01;;;;;;;19.20;2.95;;;5.80;99.90;;;;;;4901320;29;20127;-95
2020/12/15 03:34:27;;;;;;;8.88;2.17;;;5.80;99.90;;;;;;4904171;29;20024;-94
2020/12/15 03:36:54;;;;;;;16.50;2.42;;;5.80;99.90;;;;;;4923735;29;20020;-94
2020/12/15 03:39:20;;;;;;;18.50;3.45;;;5.70;99.90;;;;;;4903550;29;20498;-94
2020/12/15 03:41:46;;;;;;;20.63;4.80;;;5.70;99.90;;;;;;4907791;29;20032;-93
2020/12/15 03:44:11;;;;;;;15.82;2.63;;;5.70;99.90;;;;;;4910591;29;20060;-93
2020/12/15 03:46:40;;;;;;;12.02;2.03;;;5.70;99.90;;;;;;4914549;29;20318;-94
2020/12/15 03:49:12;;;;;;;11.70;2.30;;;5.70;99.90;;;;;;4939479;29;20051;-94
2020/12/15 03:51:41;;;;;;;21.67;4.32;;;5.70;99.90;;;;;;4940453;29;20113;-95
2020/12/15 03:54:07;;;;;;;18.98;3.03;;;5.70;99.90;;;;;;4921975;29;20028;-93
2020/12/15 03:56:32;;;;;;;15.50;2.65;;;5.70;99.90;;;;;;4930456;29;20089;-93
2020/12/15 03:59:01;;;;;;;15.13;3.88;;;5.70;99.90;;;;;;4904822;29;20032;-95
2020/12/15 04:01:27;;;;;;;18.25;3.88;;;5.70;99.90;;;;;;4902912;29;20028;-94
2020/12/15 04:03:52;;;;;;;11.13;3.03;;;5.70;99.90;;;;;;4901584;29;20036;-95
2020/12/15 04:06:19;;;;;;;15.18;3.63;;;5.70;99.90;;;;;;4909632;29;20079;-94
2020/12/15 04:08:47;;;;;;;15.25;4.32;;;5.70;99.90;;;;;;4934431;29;20024;-94
2020/12/15 04:11:16;;;;;;;16.08;4.15;;;5.70;99.90;;;;;;4916198;29;20088;-95
2020/12/15 04:13:42;;;;;;;24.90;5.85;;;5.70;99.90;;;;;;4882363;29;20033;-94
2020/12/15 04:16:07;;;;;;;19.13;4.88;;;5.70;99.90;;;;;;4898235;29;20025;-94
2020/12/15 04:18:33;;;;;;;22.25;4.95;;;5.70;99.90;;;;;;4898391;29;20037;-95
2020/12/15 04:20:59;;;;;;;19.33;4.30;;;5.70;99.90;;;;;;4882403;29;20076;-93
2020/12/15 04:23:26;;;;;;;20.75;4.57;;;5.70;99.90;;;;;;4901492;29;20060;-93
2020/12/15 04:25:56;;;;;;;26.38;5.80;;;5.80;99.90;;;;;;4897962;29;20020;-93
2020/12/15 04:28:21;;;;;;;20.88;5.10;;;5.80;99.90;;;;;;4882694;29;20591;-94
2020/12/15 04:30:48;;;;;;;29.40;6.72;;;5.80;99.90;;;;;;4898403;29;20033;-93
2020/12/15 04:33:13;;;;;;;19.75;5.20;;;5.80;99.90;;;;;;4899099;29;20040;-93
2020/12/15 04:35:39;;;;;;;24.98;5.50;;;5.80;99.90;;;;;;4898745;29;20028;-95
2020/12/15 04:38:06;;;;;;;19.70;4.97;;;5.80;99.90;;;;;;4882839;29;20490;-95
2020/12/15 04:40:32;;;;;;;27.17;6.25;;;5.80;99.90;;;;;;4897868;29;20032;-94
2020/12/15 04:43:01;;;;;;;17.13;5.40;;;5.80;99.90;;;;;;4902687;29;20025;-95
2020/12/15 04:45:30;;;;;;;26.30;5.88;;;5.80;99.90;;;;;;4882125;29;20032;-94
2020/12/15 04:48:08;;;;;;;19.73;5.25;;;5.80;99.90;;;;;;4896967;29;20489;-94
2020/12/15 04:50:36;;;;;;;20.77;6.07;;;5.80;99.90;;;;;;4896988;29;20131;-95
2020/12/15 04:53:10;;;;;;;19.63;5.85;;;5.80;99.90;;;;;;4881232;29;20025;-94
2020/12/15 04:55:37;;;;;;;28.92;6.32;;;5.80;99.90;;;;;;4896738;29;20478;-95
2020/12/15 04:58:04;;;;;;;34.78;9.05;;;5.80;99.90;;;;;;4896854;29;20035;-94
2020/12/15 05:00:30;;;;;;;23.00;6.20;;;5.80;99.90;;;;;;4910522;29;20032;-93
2020/12/15 05:02:57;;;;;;;22.85;5.28;;;5.90;99.90;;;;;;4897470;29;20029;-95
2020/12/15 05:05:24;;;;;;;18.58;5.57;;;5.90;99.90;;;;;;4896748;29;20040;-95
2020/12/15 05:07:50;;;;;;;22.83;5.45;;;5.90;99.90;;;;;;4916511;29;20063;-94
2020/12/15 05:10:18;;;;;;;21.33;5.47;;;5.90;99.90;;;;;;4922156;29;20405;-94
2020/12/15 05:12:44;;;;;;;22.15;5.72;;;5.90;99.90;;;;;;4919734;29;20035;-94
2020/12/15 05:15:20;;;;;;;25.02;5.18;;;5.90;99.90;;;;;;4920560;29;20023;-92
2020/12/15 05:17:47;;;;;;;21.75;5.72;;;5.90;99.90;;;;;;4931530;29;20027;-92
2020/12/15 05:20:26;;;;;;;28.02;5.30;;;5.90;99.90;;;;;;4920484;29;20481;-93
2020/12/15 05:22:52;;;;;;;23.17;5.70;;;5.90;99.90;;;;;;4923391;29;20079;-93
2020/12/15 05:25:24;;;;;;;15.77;4.95;;;5.90;99.90;;;;;;4923097;29;20035;-94
2020/12/15 05:27:49;;;;;;;13.85;3.53;;;5.90;99.90;;;;;;4923312;29;20031;-94
2020/12/15 05:30:16;;;;;;;23.95;5.15;;;5.90;99.90;;;;;;4922836;29;20039;-94
2020/12/15 05:33:04;;;;;;;22.33;4.50;;;5.90;99.90;;;;;;4928984;29;20028;-93
2020/12/15 05:35:32;;;;;;;20.48;4.80;;;5.90;99.90;;;;;;4909095;29;20131;-94
2020/12/15 05:38:03;;;;;;;23.02;4.68;;;5.90;99.90;;;;;;4922760;29;20424;-94
2020/12/15 05:40:29;;;;;;;12.60;3.83;;;5.90;99.90;;;;;;4922846;29;20389;-94
2020/12/15 05:42:58;;;;;;;21.90;4.00;;;5.90;99.90;;;;;;4923109;29;20063;-93
2020/12/15 05:45:26;;;;;;;20.15;5.13;;;5.90;99.90;;;;;;4922746;29;20091;-94
2020/12/15 05:48:02;;;;;;;19.27;4.70;;;5.90;99.90;;;;;;4922895;29;20062;-93
2020/12/15 05:50:28;;;;;;;22.67;4.80;;;5.90;99.90;;;;;;4922871;29;20062;-94
2020/12/15 05:52:58;;;;;;;18.20;4.10;;;5.80;99.90;;;;;;4923037;29;20492;-93
2020/12/15 05:55:23;;;;;;;24.10;5.70;;;5.80;99.90;;;;;;4922303;29;20040;-95
2020/12/15 05:57:51;;;;;;;18.48;4.57;;;5.80;99.90;;;;;;4922460;29;20040;-95
2020/12/15 06:00:17;;;;;;;15.73;4.60;;;5.80;99.90;;;;;;4922223;29;20035;-94
2020/12/15 06:02:43;;;;;;;15.32;4.30;;;5.80;99.90;;;;;;4922748;29;20183;-94
2020/12/15 06:05:09;;;;;;;26.73;4.90;;;5.80;99.90;;;;;;4923604;29;20024;-94
2020/12/15 06:07:37;;;;;;;21.05;4.95;;;5.80;99.90;;;;;;4923732;29;20132;-92
2020/12/15 06:10:05;;;;;;;18.80;3.88;;;5.80;99.90;;;;;;4923116;29;20039;-95
2020/12/15 06:12:31;;;;;;;21.33;4.53;;;5.70;99.90;;;;;;4923315;29;20053;-95
2020/12/15 06:14:57;;;;;;;24.13;5.07;;;5.70;99.90;;;;;;4922856;29;20039;-94
2020/12/15 06:17:23;;;;;;;14.07;4.38;;;5.70;99.90;;;;;;4923206;29;20036;-95
2020/12/15 06:19:53;;;;;;;17.92;4.10;;;5.70;99.90;;;;;;4909819;29;20494;-94
2020/12/15 06:22:23;;;;;;;20.37;5.47;;;5.70;99.90;;;;;;4902920;29;20401;-94
2020/12/15 06:24:59;;;;;;;15.50;3.72;;;5.70;99.90;;;;;;4903243;29;20036;-94
2020/12/15 06:27:30;;;;;;;19.02;5.15;;;5.70;99.90;;;;;;4898189;29;20111;-94
2020/12/15 06:29:56;;;;;;;22.83;4.50;;;5.70;99.90;;;;;;4902196;29;20040;-94
2020/12/15 06:32:22;;;;;;;18.45;4.63;;;5.70;99.90;;;;;;4902360;29;20020;-95
2020/12/15 06:34:49;;;;;;;14.73;4.55;;;5.70;99.90;;;;;;4905592;29;20031;-94
2020/12/15 06:37:16;;;;;;;21.58;4.55;;;5.70;99.90;;;;;;4905035;29;20055;-92
2020/12/15 06:39:59;;;;;;;12.55;3.20;;;5.70;99.90;;;;;;4901940;29;20025;-93
2020/12/15 06:42:29;;;;;;;19.05;3.80;;;5.70;99.90;;;;;;4898252;29;20039;-95
2020/12/15 06:45:07;;;;;;;21.92;4.20;;;5.70;99.90;;;;;;4904905;29;20060;-95
2020/12/15 06:47:34;;;;;;;16.23;4.20;;;5.70;99.90;;;;;;4901758;29;20059;-92
2020/12/15 06:50:18;;;;;;;13.10;3.70;;;5.70;99.90;;;;;;4878620;29;20036;-96
2020/12/15 06:52:44;;;;;;;17.60;4.10;;;5.70;99.90;;;;;;4902400;29;20065;-95
2020/12/15 06:55:10;;;;;;;19.35;3.85;;;5.70;99.90;;;;;;4901949;29;20521;-94
2020/12/15 06:57:37;;;;;;;22.58;4.70;;;5.70;99.90;;;;;;4902251;29;20028;-95
2020/12/15 07:00:11;;;;;;;21.70;4.72;;;5.70;99.90;;;;;;4902528;29;20028;-95
2020/12/15 07:02:37;;;;;;;23.13;4.95;;;5.60;99.90;;;;;;4901979;29;20034;-95
2020/12/15 07:05:17;;;;;;;17.20;4.13;;;5.60;99.90;;;;;;4905086;29;20020;-95
2020/12/15 07:08:07;;;;;;;10.98;4.15;;;5.60;99.90;;;;;;4912411;29;20040;-95
2020/12/15 07:10:34;;;;;;;14.52;3.65;;;5.60;99.90;;;;;;4907328;29;20036;-95
2020/12/15 07:13:04;;;;;;;19.95;4.50;;;5.50;99.90;;;;;;4912489;29;20038;-96
2020/12/15 07:15:30;;;;;;;15.95;4.28;;;5.50;99.90;;;;;;4910188;29;20032;-95
2020/12/15 07:17:56;;;;;;;13.07;3.78;;;5.60;99.90;;;;;;4905012;29;20035;-94
2020/12/15 07:20:26;;;;;;;15.45;3.92;;;5.60;99.90;;;;;;4903512;29;20032;-96
2020/12/15 07:22:52;;;;;;;15.45;4.25;;;5.50;99.90;;;;;;4902478;29;20024;-96
2020/12/15 07:25:18;;;;;;;19.65;4.53;;;5.50;99.90;;;;;;4902627;29;20652;-94
2020/12/15 07:27:45;;;;;;;17.83;3.58;;;5.60;99.90;;;;;;4902676;29;20032;-95
2020/12/15 07:30:13;;;;;;;13.85;3.60;;;5.50;99.90;;;;;;4902767;29;20032;-95
2020/12/15 07:32:40;;;;;;;18.55;3.47;;;5.50;99.90;;;;;;4902149;29;20486;-94
2020/12/15 07:35:13;;;;;;;15.95;3.30;;;5.50;99.90;;;;;;4902649;29;20126;-95
2020/12/15 07:37:40;;;;;;;14.93;3.40;;;5.60;99.90;;;;;;4901950;29;20021;-94
2020/12/15 07:40:09;;;;;;;18.55;3.72;;;5.50;99.90;;;;;;4901143;29;20024;-95
2020/12/15 07:42:35;;;;;;;19.80;3.88;;;5.50;99.90;;;;;;4899764;29;20115;-94
2020/12/15 07:45:08;;;;;;;17.83;3.83;;;5.50;99.90;;;;;;4900979;29;20048;-94
2020/12/15 07:47:42;;;;;;;17.40;4.00;;;5.60;99.90;;;;;;4901489;29;20036;-96
2020/12/15 07:50:10;;;;;;;17.77;4.05;;;5.50;99.90;;;;;;4899958;29;20052;-95
2020/12/15 07:52:39;;;;;;;20.35;4.07;;;5.60;99.90;;;;;;4902873;29;20038;-95
2020/12/15 07:55:10;;;;;;;11.38;3.22;;;5.60;99.90;;;;;;4902338;29;20107;-96
2020/12/15 07:57:38;;;;;;;23.38;4.25;;;5.60;99.90;;;;;;4901445;29;20048;-96
2020/12/15 08:00:18;;;;;;;21.17;4.40;;;5.60;99.90;;;;;;4900540;29;20445;-95
2020/12/15 08:02:45;;;;;;;18.75;3.90;;;5.60;99.90;;;;;;4907245;29;20047;-93
2020/12/15 08:05:18;;;;;;;23.10;5.28;;;5.60;99.90;;;;;;4898786;29;20028;-95
2020/12/15 08:07:46;;;;;;;13.32;3.83;;;5.50;99.90;;;;;;4902720;29;20048;-95
2020/12/15 08:10:12;;;;;;;12.63;5.00;;;5.50;99.90;;;;;;4901570;29;20123;-93
2020/12/15 08:12:40;;;;;;;27.08;4.03;;;5.50;99.90;;;;;;4902577;29;20063;-94
2020/12/15 08:15:06;;;;;;;13.00;4.75;;;5.50;99.90;;;;;;4901219;29;20115;-94
2020/12/15 08:17:32;;;;;;;21.60;3.72;;;5.50;99.90;;;;;;4901067;29;20372;-94
2020/12/15 08:20:07;;;;;;;13.30;4.10;;;5.50;99.90;;;;;;4899745;29;20503;-95
2020/12/15 08:22:40;;;;;;;35.53;5.63;;;5.50;99.90;;;;;;4916137;29;20036;-93
2020/12/15 08:25:12;;;;;;;12.27;3.95;;;5.50;99.90;;;;;;4900289;29;20040;-94
2020/12/15 08:27:41;;;;;;;14.13;4.28;;;5.50;99.90;;;;;;4900538;29;20087;-94
2020/12/15 08:30:20;;;;;;;16.48;4.03;;;5.50;99.90;;;;;;4902146;29;20064;-94
2020/12/15 08:32:49;;;;;;;20.05;4.10;;;5.50;99.90;;;;;;4902186;29;20055;-94
2020/12/15 08:35:24;;;;;;;15.13;3.80;;;5.50;99.90;;;;;;4905001;29;20071;-94
2020/12/15 08:38:09;;;;;;;17.30;3.97;;;5.50;99.90;;;;;;4903960;29;20035;-95
2020/12/15 08:40:35;;;;;;;18.50;4.32;;;5.50;99.90;;;;;;4905282;29;20025;-95
2020/12/15 08:43:03;;;;;;;21.02;3.95;;;5.60;99.90;;;;;;4908174;29;20054;-95
2020/12/15 08:48:37;;;;;;;18.15;4.00;;;5.70;99.90;;;;;;5170218;23;20079;-95
2020/12/15 08:51:15;;;;;;;15.90;5.85;;;5.70;99.90;;;;;;4940595;29;20027;-96
2020/12/15 08:53:46;;;;;;;14.70;3.83;;;5.70;99.90;;;;;;4932164;29;20024;-95
2020/12/15 08:56:12;;;;;;;;;;;5.80;99.90;;;;;;4935545;29;20031;-96
2020/12/15 08:58:48;;;;;;;21.65;4.75;;;5.80;99.90;;;;;;4936195;29;19907;-95
2020/12/15 09:01:14;;;;;;;15.38;4.80;;;5.90;99.90;;;;;;4942474;29;20039;-96
2020/12/15 09:03:45;;;;;;;16.33;5.75;;;5.90;99.90;;;;;;4951661;29;20497;-95
2020/12/15 09:06:11;;;;;;;16.10;4.38;;;6.00;99.90;;;;;;4929141;29;20023;-96
2020/12/15 09:08:46;;;;;;;14.88;3.63;;;6.00;99.90;;;;;;4931290;29;20055;-96
2020/12/15 09:11:14;;;;;;;11.43;3.88;;;6.10;99.90;;;;;;4913877;29;20063;-96
2020/12/15 09:13:50;;;;;;;18.73;4.47;;;6.10;99.90;;;;;;4951653;29;20035;-96
2020/12/15 09:16:23;;;;;;;21.13;4.18;;;6.10;99.90;;;;;;4938961;29;20020;-95
2020/12/15 09:18:50;;;;;;;16.25;4.30;;;6.20;99.90;;;;;;4937620;29;20044;-95
2020/12/15 09:21:18;;;;;;;14.75;4.40;;;6.20;99.90;;;;;;4946390;29;20043;-95
2020/12/15 09:23:54;;;;;;;12.13;3.80;;;6.20;99.90;;;;;;4944387;29;20027;-95
2020/12/15 09:26:21;;;;;;;19.23;3.92;;;6.30;99.90;;;;;;4946084;29;20032;-95
2020/12/15 09:28:48;;;;;;;17.02;4.57;;;6.30;99.90;;;;;;4942567;29;20131;-95
2020/12/15 09:31:16;;;;;;;12.40;4.78;;;6.40;99.90;;;;;;4945609;29;20027;-95
2020/12/15 09:33:42;;;;;;;18.33;4.93;;;6.40;99.90;;;;;;4937849;29;20028;-96
2020/12/15 09:36:11;;;;;;;11.20;3.10;;;6.40;99.90;;;;;;4930541;29;20566;-96
2020/12/15 09:38:37;;;;;;;19.85;4.35;;;6.40;99.90;;;;;;4924364;29;20036;-95
2020/12/15 09:41:03;;;;;;;17.83;5.05;;;6.50;99.90;;;;;;4939813;29;20030;-95
2020/12/15 09:43:29;;;;;;;21.17;4.57;;;6.50;99.90;;;;;;4939624;29;20042;-95
2020/12/15 09:45:54;;;;;;;21.55;4.90;;;6.60;99.90;;;;;;4956671;29;20062;-95
2020/12/15 09:48:21;;;;;;;15.60;4.20;;;6.70;99.90;;;;;;4949978;29;20048;-95
2020/12/15 09:50:47;;;;;;;18.63;3.65;;;6.70;99.90;;;;;;4934236;29;20031;-96
2020/12/15 09:53:13;;;;;;;20.83;5.05;;;6.90;99.90;;;;;;4939664;29;20039;-95
2020/12/15 09:55:39;;;;;;;12.20;3.25;;;7.00;99.90;;;;;;4940117;29;20082;-94
2020/12/15 09:58:05;;;;;;;13.93;3.60;;;7.10;99.90;;;;;;4937812;29;20020;-95
2020/12/15 10:00:31;;;;;;;13.13;2.97;;;7.20;99.90;;;;;;4931772;29;20123;-95
2020/12/15 10:02:56;;;;;;;13.40;3.17;;;7.30;99.90;;;;;;4936121;29;20532;-93
2020/12/15 10:05:22;;;;;;;19.55;3.70;;;7.40;99.90;;;;;;4944244;28;20063;-94
2020/12/15 10:07:48;;;;;;;19.95;4.35;;;7.60;99.90;;;;;;4943583;29;20441;-95
2020/12/15 10:10:16;;;;;;;13.70;3.30;;;7.60;99.90;;;;;;4927535;29;20098;-95
2020/12/15 10:12:42;;;;;;;15.25;3.95;;;7.60;99.90;;;;;;4923554;29;20058;-94
2020/12/15 10:15:10;;;;;;;16.90;3.13;;;7.50;99.90;;;;;;4923919;29;20028;-95
2020/12/15 10:17:38;;;;;;;8.07;2.85;;;7.60;99.90;;;;;;4926487;29;20027;-95
2020/12/15 10:20:07;;;;;;;15.30;2.95;;;7.70;99.90;;;;;;4948542;29;20124;-95
2020/12/15 10:22:33;;;;;;;11.70;3.20;;;7.70;99.90;;;;;;4946037;29;20067;-95
2020/12/15 10:24:58;;;;;;;14.80;3.70;;;7.70;99.90;;;;;;4942155;29;20587;-96
2020/12/15 10:27:24;;;;;;;14.38;2.92;;;7.70;99.90;;;;;;4943747;29;20039;-95
2020/12/15 10:29:50;;;;;;;10.80;2.70;;;7.60;99.90;;;;;;4943162;29;20039;-94
2020/12/15 10:32:16;;;;;;;13.05;3.10;;;7.50;99.90;;;;;;4953950;29;20015;-95
2020/12/15 10:34:41;;;;;;;10.98;2.03;;;7.50;99.90;;;;;;4951556;29;20033;-95
2020/12/15 10:37:09;;;;;;;12.73;2.47;;;7.40;99.90;;;;;;4952825;29;20028;-95
2020/12/15 10:39:36;;;;;;;10.93;2.13;;;7.50;99.90;;;;;;4954147;28;20027;-95
2020/12/15 10:42:02;;;;;;;13.20;2.90;;;7.60;99.90;;;;;;4959023;28;20039;-95
2020/12/15 10:44:27;;;;;;;15.00;2.10;;;7.60;99.90;;;;;;4951346;29;20031;-94
2020/12/15 10:46:53;;;;;;;10.95;1.92;;;7.70;99.90;;;;;;4946817;29;20043;-96
2020/12/15 10:49:19;;;;;;;7.93;1.90;;;8.00;99.90;;;;;;4944744;29;20142;-95
2020/12/15 10:51:51;;;;;;;10.35;1.88;;;8.30;99.90;;;;;;4943967;29;20028;-96
2020/12/15 10:54:18;;;;;;;10.65;1.60;;;8.70;99.90;;;;;;4932307;29;20032;-95
2020/12/15 10:56:44;;;;;;;12.55;1.83;;;9.10;99.90;;;;;;4930934;29;20095;-95
2020/12/15 10:59:09;;;;;;;8.23;2.30;;;9.30;99.90;;;;;;4937771;29;20059;-96
2020/12/15 11:01:36;;;;;;;13.30;2.40;;;9.50;99.90;;;;;;4925815;29;20280;-94
2020/12/15 11:04:01;;;;;;;11.27;2.00;;;9.60;99.90;;;;;;4923444;29;20064;-96
2020/12/15 11:06:27;;;;;;;9.50;1.63;;;9.60;99.90;;;;;;4922058;29;20031;-95
2020/12/15 11:08:53;;;;;;;7.82;1.80;;;9.70;99.90;;;;;;4922025;29;20114;-95
2020/12/15 11:11:19;;;;;;;11.85;1.90;;;9.70;99.90;;;;;;4921770;29;20040;-96
2020/12/15 11:13:46;;;;;;;11.65;1.92;;;9.80;99.90;;;;;;4924934;29;20023;-96
2020/12/15 11:16:12;;;;;;;8.05;2.15;;;9.80;99.90;;;;;;4948918;29;20115;-94
2020/12/15 11:18:38;;;;;;;14.45;2.47;;;9.80;99.90;;;;;;4933558;29;20032;-95
2020/12/15 11:21:04;;;;;;;9.90;2.33;;;10.00;99.90;;;;;;4949064;28;20070;-96
2020/12/15 11:23:30;;;;;;;12.30;2.40;;;9.90;99.90;;;;;;4928693;29;20063;-95
2020/12/15 11:25:55;;;;;;;15.07;2.47;;;9.90;99.90;;;;;;4928246;29;20075;-95
2020/12/15 11:28:21;;;;;;;10.38;1.98;;;9.80;99.90;;;;;;4926581;29;20023;-94
2020/12/15 11:30:47;;;;;;;12.52;1.85;;;9.80;99.90;;;;;;4925877;29;20067;-96
2020/12/15 11:33:12;;;;;;;9.35;2.13;;;9.60;99.90;;;;;;4926744;29;20505;-95
2020/12/15 11:35:38;;;;;;;10.13;2.13;;;9.50;99.90;;;;;;4925451;29;20494;-96
2020/12/15 11:38:05;;;;;;;12.60;2.38;;;9.40;99.90;;;;;;4925065;29;20139;-94
2020/12/15 11:40:30;;;;;;;11.15;3.67;;;9.50;99.90;;;;;;4923428;29;20023;-95
2020/12/15 11:42:57;;;;;;;10.93;1.80;;;9.70;99.90;;;;;;4924281;29;20567;-95
2020/12/15 11:45:27;;;;;;;14.07;2.72;;;10.00;99.90;;;;;;4926078;29;20031;-95
2020/12/15 11:47:53;;;;;;;11.48;2.42;;;10.30;99.90;;;;;;4902061;29;20058;-95
2020/12/15 11:50:20;;;;;;;10.40;3.03;;;10.70;99.90;;;;;;4923246;29;20047;-95
2020/12/15 11:52:45;;;;;;;9.32;2.00;;;11.20;99.90;;;;;;4941337;29;20477;-95
2020/12/15 11:55:11;;;;;;;11.55;2.28;;;11.60;99.90;;;;;;4941200;29;20066;-96
2020/12/15 11:57:37;;;;;;;17.35;2.75;;;12.00;99.90;;;;;;4926983;29;20031;-96
2020/12/15 12:00:05;;;;;;;18.27;2.40;;;12.30;99.90;;;;;;4943309;29;20027;-96
2020/12/15 12:02:38;;;;;;;14.10;2.13;;;12.40;99.90;;;;;;4964877;29;20027;-96
2020/12/15 12:05:03;;;;;;;9.88;2.20;;;12.20;99.20;;;;;;4945508;28;20039;-96
2020/12/15 12:07:29;;;;;;;12.13;2.30;;;12.30;99.40;;;;;;4945059;29;20563;-96
2020/12/15 12:09:58;;;;;;;12.27;3.55;;;12.50;98.60;;;;;;4932403;29;20341;-96
2020/12/15 12:12:24;;;;;;;9.50;2.88;;;12.70;98.20;;;;;;4924231;29;20023;-96
2020/12/15 12:14:50;;;;;;;14.13;3.05;;;12.90;97.20;;;;;;4937895;29;20121;-96
2020/12/15 12:17:17;;;;;;;12.68;2.63;;;13.10;96.30;;;;;;4934778;29;20028;-96
2020/12/15 12:19:43;;;;;;;12.13;2.13;;;13.30;95.80;;;;;;4923803;29;20074;-95
2020/12/15 12:22:08;;;;;;;5.57;1.83;;;13.40;94.10;;;;;;4924978;29;20024;-96
2020/12/15 12:24:34;;;;;;;8.82;2.20;;;13.40;93.80;;;;;;4928876;29;20027;-96
2020/12/15 12:27:02;;;;;;;12.80;2.90;;;13.50;93.50;;;;;;4940468;29;20024;-95
2020/12/15 12:29:29;;;;;;;12.38;2.35;;;13.50;92.70;;;;;;4936162;29;20031;-96
2020/12/15 12:31:59;;;;;;;11.60;1.92;;;13.50;92.60;;;;;;4938960;29;20027;-96
2020/12/15 12:34:44;;;;;;;9.80;2.42;;;13.40;92.40;;;;;;4931348;29;20027;-95
2020/12/15 12:37:10;;;;;;;7.50;1.67;;;13.20;92.50;;;;;;4951732;29;20024;-96
2020/12/15 12:39:42;;;;;;;13.88;2.40;;;12.90;92.60;;;;;;4933548;29;20059;-95
2020/12/15 12:42:10;;;;;;;12.95;2.10;;;12.60;93.00;;;;;;4924775;29;20047;-95
2020/12/15 12:44:36;;;;;;;15.55;3.40;;;12.30;93.80;;;;;;4935530;29;20106;-95
2020/12/15 12:47:35;;;;;;;7.32;2.25;;;12.30;94.40;;;;;;4935994;29;20027;-94
2020/12/15 12:50:03;;;;;;;14.98;3.30;;;12.40;94.10;;;;;;4947000;29;20044;-93
2020/12/15 12:52:29;;;;;;;9.52;2.15;;;12.50;93.90;;;;;;4926089;29;20032;-96
2020/12/15 12:54:55;;;;;;;15.88;2.20;;;12.70;93.70;;;;;;4927221;29;20378;-96